This is the latest recevied weather packets stored in our database for station/object OE-11372. If no packets are shown the sender has not sent any weather packets the latest 10 day(s).
| Time | Temp. | Humidity | Pressure | Rain* | Wind** | Luminosity | Snow |
|---|---|---|---|---|---|---|---|
| 1787827275 | 22.78° C | 53% | 854.5 hPa | 0 mm | - | 750 W/m² | - |
| 1787826902 | 21.67° C | 60% | 854.4 hPa | 0 mm | - | 750 W/m² | - |
| 1787826303 | 21.11° C | 65% | 854.3 hPa | 0 mm | - | 750 W/m² | - |
| 1787825476 | 21.11° C | 66% | 854.3 hPa | 0 mm | - | 708 W/m² | - |
| 1787825103 | 20° C | 70% | 854.3 hPa | 0 mm | - | 593 W/m² | - |
| 1787824503 | 20° C | 70% | 854.2 hPa | 0 mm | - | 667 W/m² | - |
| 1787823676 | 20° C | 69% | 854 hPa | 0 mm | - | 478 W/m² | - |
| 1787823303 | 18.89° C | 72% | 853.8 hPa | 0 mm | - | 362 W/m² | - |
| 1787822702 | 18.89° C | 72% | 854 hPa | 0 mm | - | 379 W/m² | - |
| 1787821876 | 19.44° C | 67% | 854.1 hPa | 0 mm | - | 552 W/m² | - |
| 1787821502 | 18.89° C | 71% | 854.2 hPa | 0 mm | - | 412 W/m² | - |
| 1787820903 | 18.33° C | 72% | 854.1 hPa | 0 mm | - | 395 W/m² | - |
| 1787820076 | 17.78° C | 74% | 854 hPa | 0 mm | - | 420 W/m² | - |
| 1787819703 | 17.22° C | 75% | 854 hPa | 0 mm | - | 445 W/m² | - |
| 1787819103 | 17.22° C | 77% | 853.9 hPa | 0 mm | - | 420 W/m² | - |
| 1787818276 | 16.67° C | 77% | 853.8 hPa | 0 mm | - | 379 W/m² | - |
| 1787817902 | 16.11° C | 80% | 853.7 hPa | 0 mm | - | 511 W/m² | - |
| 1787817302 | 16.67° C | 78% | 853.8 hPa | 0 mm | - | 453 W/m² | - |
| 1787816476 | 16.11° C | 80% | 853.7 hPa | 0 mm | - | 412 W/m² | - |
| 1787816102 | 15.56° C | 83% | 853.6 hPa | 0 mm | - | 354 W/m² | - |
| 1787815503 | 15.56° C | 83% | 853.5 hPa | 0 mm | - | 329 W/m² | - |
| 1787814676 | 15° C | 83% | 853.6 hPa | 0 mm | - | 297 W/m² | - |
| 1787814303 | 14.44° C | 86% | 853.5 hPa | 0 mm | - | 297 W/m² | - |
| 1787813703 | 13.89° C | 88% | 853.6 hPa | 0 mm | - | 288 W/m² | - |
| 1787812876 | 13.33° C | 90% | 853.4 hPa | 0 mm | - | 181 W/m² | - |
* Rain latest hour (hover to see other rain measurements)
** Current wind speed in m/s (hover to see current wind gust speed)